createdAt,value
2023-04-16T00:00:51.887Z,94.66
2023-04-16T00:03:18.815Z,95.12
2023-04-16T00:05:45.853Z,94.93
2023-04-16T00:08:12.770Z,94.92
2023-04-16T00:10:39.553Z,95.12
2023-04-16T00:13:06.285Z,95.06
2023-04-16T00:15:33.052Z,95.07
2023-04-16T00:17:59.842Z,95.23
2023-04-16T00:20:26.636Z,94.98
2023-04-16T00:22:53.419Z,94.90
2023-04-16T00:25:20.471Z,94.85
2023-04-16T00:27:47.243Z,94.80
2023-04-16T00:30:14.063Z,94.96
2023-04-16T00:32:40.901Z,95.06
2023-04-16T00:35:08.226Z,95.02
2023-04-16T00:37:35.015Z,95.05
2023-04-16T00:40:01.858Z,95.14
2023-04-16T00:42:28.679Z,95.06
2023-04-16T00:44:55.478Z,94.94
2023-04-16T00:47:22.315Z,94.84
2023-04-16T00:49:49.379Z,95.12
2023-04-16T00:52:16.165Z,94.67
2023-04-16T00:54:43.201Z,95.09
2023-04-16T00:57:10.986Z,94.84
2023-04-16T00:59:37.808Z,94.85
2023-04-16T01:02:04.853Z,94.95
2023-04-16T01:04:31.739Z,95.14
2023-04-16T01:06:58.611Z,95.15
2023-04-16T01:09:25.412Z,95.11
2023-04-16T01:11:52.191Z,94.93
2023-04-16T01:14:18.954Z,95.14
2023-04-16T01:16:45.795Z,95.03
2023-04-16T01:19:12.699Z,94.98
2023-04-16T01:21:39.508Z,94.84
2023-04-16T01:24:06.592Z,95.05
2023-04-16T01:26:33.373Z,95.06
2023-04-16T01:29:00.218Z,94.96
2023-04-16T01:31:27.377Z,95.18
2023-04-16T01:34:17.372Z,95.00
2023-04-16T01:36:44.782Z,94.91
2023-04-16T01:39:15.792Z,94.76
2023-04-16T01:41:42.817Z,94.83
2023-04-16T01:44:09.659Z,95.03
2023-04-16T01:46:36.761Z,94.81
2023-04-16T01:49:04.946Z,95.16
2023-04-16T01:51:32.408Z,94.93
2023-04-16T01:53:59.199Z,94.75
2023-04-16T01:56:26.408Z,94.89
2023-04-16T01:58:53.706Z,94.89
2023-04-16T02:01:20.668Z,94.71
2023-04-16T02:03:48.808Z,94.59
2023-04-16T02:06:15.860Z,95.08
2023-04-16T02:08:43.418Z,94.78
2023-04-16T02:11:10.465Z,94.97
2023-04-16T02:13:37.295Z,94.44
2023-04-16T02:16:04.756Z,94.79
2023-04-16T02:18:46.690Z,94.67
2023-04-16T02:21:15.080Z,94.46
2023-04-16T02:23:42.952Z,94.77
2023-04-16T02:26:09.826Z,94.80
2023-04-16T02:28:37.709Z,94.49
2023-04-16T02:31:04.768Z,94.77
2023-04-16T02:33:39.075Z,94.47
2023-04-16T02:36:06.347Z,94.77
2023-04-16T02:38:33.292Z,94.58
2023-04-16T02:41:00.209Z,94.47
2023-04-16T02:43:27.023Z,94.45
2023-04-16T02:45:53.858Z,94.81
2023-04-16T02:48:20.645Z,94.43
2023-04-16T02:50:47.485Z,94.63
2023-04-16T02:53:14.549Z,94.39
2023-04-16T02:55:41.516Z,94.32
2023-04-16T02:58:08.382Z,94.54
2023-04-16T03:00:35.191Z,94.52
2023-04-16T03:03:02.340Z,94.23
2023-04-16T03:05:29.313Z,94.51
2023-04-16T03:07:57.453Z,94.23
2023-04-16T03:10:24.718Z,94.06
2023-04-16T03:12:51.603Z,94.55
2023-04-16T03:15:18.439Z,94.17
2023-04-16T03:17:45.271Z,94.38
2023-04-16T03:20:12.356Z,94.28
2023-04-16T03:22:39.518Z,94.44
2023-04-16T03:25:08.054Z,94.09
2023-04-16T03:27:34.993Z,94.20
2023-04-16T03:30:02.430Z,94.05
2023-04-16T03:32:30.048Z,94.20
2023-04-16T03:34:57.180Z,94.30
2023-04-16T03:37:24.075Z,94.25
2023-04-16T03:39:51.513Z,94.15
2023-04-16T03:42:18.309Z,94.34
2023-04-16T03:44:45.162Z,94.48
2023-04-16T03:47:12.422Z,94.30
2023-04-16T03:49:39.247Z,94.24
2023-04-16T03:52:06.632Z,94.37
2023-04-16T03:54:33.399Z,94.31
2023-04-16T03:57:11.732Z,94.18
2023-04-16T03:59:38.549Z,94.16
2023-04-16T04:02:05.506Z,94.07
2023-04-16T04:04:32.417Z,94.19
2023-04-16T04:06:59.257Z,94.08
2023-04-16T04:09:27.214Z,93.66
2023-04-16T04:11:54.074Z,94.21
2023-04-16T04:14:20.876Z,94.23
2023-04-16T04:16:47.723Z,93.81
2023-04-16T04:19:14.863Z,94.09
2023-04-16T04:21:42.219Z,94.22
2023-04-16T04:24:09.114Z,94.09
2023-04-16T04:26:36.311Z,94.00
2023-04-16T04:29:03.121Z,93.97
2023-04-16T04:31:30.577Z,93.74
2023-04-16T04:33:57.330Z,94.12
2023-04-16T04:36:24.153Z,94.06
2023-04-16T04:38:51.709Z,93.78
2023-04-16T04:41:19.821Z,93.71
2023-04-16T04:43:47.219Z,94.02
2023-04-16T04:46:14.035Z,93.74
2023-04-16T04:48:41.353Z,94.00
2023-04-16T04:51:08.148Z,93.79
2023-04-16T04:53:34.952Z,93.79
2023-04-16T04:56:09.185Z,94.00
2023-04-16T04:58:40.164Z,93.70
2023-04-16T05:01:07.175Z,93.86
2023-04-16T05:03:34.098Z,93.69
2023-04-16T05:06:01.129Z,93.96
2023-04-16T05:08:27.862Z,93.95
2023-04-16T05:10:54.595Z,93.80
2023-04-16T05:13:21.424Z,93.71
2023-04-16T05:15:48.222Z,93.90
2023-04-16T05:18:14.976Z,93.75
2023-04-16T05:20:41.704Z,93.66
2023-04-16T05:23:08.495Z,93.69
2023-04-16T05:25:35.346Z,93.43
2023-04-16T05:28:02.053Z,93.48
2023-04-16T05:30:28.926Z,93.42
2023-04-16T05:32:55.802Z,93.68
2023-04-16T05:35:22.595Z,93.36
2023-04-16T05:37:49.675Z,93.50
2023-04-16T05:40:16.393Z,93.31
2023-04-16T05:42:43.195Z,93.47
2023-04-16T05:45:10.848Z,93.45
2023-04-16T05:47:37.646Z,93.47
2023-04-16T05:50:04.932Z,93.37
2023-04-16T05:52:31.703Z,93.12
2023-04-16T05:55:01.875Z,93.32
2023-04-16T05:57:29.665Z,92.92
2023-04-16T05:59:56.534Z,92.99
2023-04-16T06:02:23.569Z,93.12
2023-04-16T06:04:50.527Z,93.21
2023-04-16T06:07:17.360Z,92.88
2023-04-16T06:09:45.888Z,93.29
2023-04-16T06:12:12.835Z,93.17
2023-04-16T06:14:39.593Z,92.90
2023-04-16T06:17:06.392Z,93.14
2023-04-16T06:19:33.141Z,93.05
2023-04-16T06:21:59.921Z,93.09
2023-04-16T06:24:26.801Z,93.14
2023-04-16T06:26:54.551Z,93.02
2023-04-16T06:29:24.042Z,93.04
2023-04-16T06:31:55.201Z,92.59
2023-04-16T06:34:21.979Z,93.01
2023-04-16T06:36:48.747Z,93.07
2023-04-16T06:39:15.662Z,92.80
2023-04-16T06:41:42.757Z,92.91
2023-04-16T06:44:09.533Z,92.78
2023-04-16T06:46:36.530Z,92.66
2023-04-16T06:49:03.424Z,93.18
2023-04-16T06:51:30.266Z,92.96
2023-04-16T06:53:57.118Z,93.14
2023-04-16T06:56:23.958Z,93.11
2023-04-16T06:58:51.598Z,93.05
2023-04-16T07:01:18.840Z,92.98
2023-04-16T07:03:46.462Z,93.12
2023-04-16T07:06:13.424Z,93.14
2023-04-16T07:08:40.200Z,92.75
2023-04-16T07:11:06.962Z,93.15
2023-04-16T07:13:33.744Z,92.93
2023-04-16T07:16:00.704Z,92.97
2023-04-16T07:18:27.582Z,92.97
2023-04-16T07:20:54.349Z,93.07
2023-04-16T07:23:21.125Z,93.37
2023-04-16T07:25:47.899Z,92.92
2023-04-16T07:28:17.319Z,93.26
2023-04-16T07:30:44.147Z,93.17
2023-04-16T07:33:11.214Z,93.04
2023-04-16T07:35:38.013Z,93.29
2023-04-16T07:38:04.848Z,93.13
2023-04-16T07:40:31.657Z,93.29
2023-04-16T07:42:58.529Z,93.38
2023-04-16T07:45:25.309Z,93.22
2023-04-16T07:47:52.159Z,93.07
2023-04-16T07:50:19.729Z,93.21
2023-04-16T07:52:47.559Z,92.91
2023-04-16T07:55:14.342Z,93.04
2023-04-16T07:57:41.556Z,93.11
2023-04-16T08:00:09.381Z,93.15
2023-04-16T08:02:42.513Z,93.13
2023-04-16T08:05:09.582Z,93.17
2023-04-16T08:07:36.371Z,92.92
2023-04-16T08:10:03.305Z,93.17
2023-04-16T08:12:31.404Z,93.29
2023-04-16T08:14:58.253Z,93.10
2023-04-16T08:17:25.183Z,93.13
2023-04-16T08:19:51.985Z,92.84
2023-04-16T08:22:19.152Z,93.11
2023-04-16T08:24:46.233Z,92.83
2023-04-16T08:27:19.353Z,92.98
2023-04-16T08:29:47.778Z,93.06
2023-04-16T08:32:14.636Z,93.02
2023-04-16T08:34:42.525Z,92.97
2023-04-16T08:37:09.973Z,93.08
2023-04-16T08:39:36.958Z,92.51
2023-04-16T08:42:06.275Z,92.77
2023-04-16T08:44:35.424Z,92.46
2023-04-16T08:47:02.644Z,92.49
2023-04-16T08:49:29.714Z,92.55
2023-04-16T08:51:57.304Z,92.12
2023-04-16T08:54:56.532Z,91.98
2023-04-16T08:57:24.727Z,92.26
2023-04-16T08:59:52.033Z,92.24
2023-04-16T09:02:19.204Z,91.89
2023-04-16T09:04:47.346Z,91.95
2023-04-16T09:07:14.889Z,92.26
2023-04-16T09:09:42.387Z,92.24
2023-04-16T09:12:10.387Z,91.99
2023-04-16T09:14:38.444Z,91.85
2023-04-16T09:17:06.577Z,91.83
2023-04-16T09:19:33.390Z,92.13
2023-04-16T09:22:00.444Z,91.79
2023-04-16T09:24:27.254Z,91.88
2023-04-16T09:26:55.072Z,92.12
2023-04-16T09:29:41.370Z,91.81
2023-04-16T09:32:09.960Z,91.99
2023-04-16T09:34:57.501Z,92.00
2023-04-16T09:37:25.876Z,91.75
2023-04-16T09:39:55.279Z,91.76
2023-04-16T09:42:29.348Z,91.75
2023-04-16T09:44:59.334Z,91.94
2023-04-16T09:47:39.517Z,91.84
2023-04-16T09:50:07.284Z,91.67
2023-04-16T09:52:37.197Z,91.50
2023-04-16T09:55:04.305Z,91.51
2023-04-16T09:57:31.115Z,91.25
2023-04-16T10:00:09.520Z,91.31
2023-04-16T10:02:39.468Z,91.26
2023-04-16T10:05:06.827Z,91.21
2023-04-16T10:07:34.933Z,91.10
2023-04-16T10:10:03.119Z,90.95
2023-04-16T10:12:32.913Z,90.79
2023-04-16T10:14:59.980Z,90.73
2023-04-16T10:17:27.513Z,90.37
2023-04-16T10:19:54.790Z,90.22
2023-04-16T10:22:21.620Z,89.95
2023-04-16T10:24:49.042Z,89.99
2023-04-16T10:27:17.394Z,89.81
2023-04-16T10:29:44.748Z,89.50
2023-04-16T10:32:11.902Z,89.75
2023-04-16T10:34:39.199Z,89.51
2023-04-16T10:37:06.510Z,89.46
2023-04-16T10:39:37.621Z,89.34
2023-04-16T10:42:09.912Z,88.80
2023-04-16T10:44:36.822Z,89.13
2023-04-16T10:47:03.932Z,88.53
2023-04-16T10:49:31.121Z,88.62
2023-04-16T10:51:59.280Z,88.49
2023-04-16T10:54:27.827Z,88.36
2023-04-16T10:56:57.437Z,88.17
2023-04-16T10:59:24.759Z,87.97
2023-04-16T11:01:56.630Z,87.96
2023-04-16T11:04:32.534Z,87.72
2023-04-16T11:07:11.803Z,87.68
2023-04-16T11:09:57.930Z,87.54
2023-04-16T11:12:34.458Z,87.82
2023-04-16T11:15:02.763Z,87.61
2023-04-16T11:17:33.817Z,87.73
2023-04-16T11:20:01.169Z,87.65
2023-04-16T11:22:28.111Z,87.65
2023-04-16T11:24:57.910Z,87.80
2023-04-16T11:27:25.082Z,87.49
2023-04-16T11:30:10.422Z,87.65
2023-04-16T11:32:38.595Z,87.81
2023-04-16T11:35:17.420Z,87.61
2023-04-16T11:37:45.026Z,87.67
2023-04-16T11:40:12.896Z,87.74
2023-04-16T11:42:41.125Z,87.54
2023-04-16T11:45:09.646Z,87.95
2023-04-16T11:47:47.789Z,88.00
2023-04-16T11:50:18.664Z,87.77
2023-04-16T11:52:45.435Z,87.87
2023-04-16T11:55:12.251Z,87.98
2023-04-16T11:57:39.119Z,87.95
2023-04-16T12:00:10.734Z,88.19
2023-04-16T12:03:07.103Z,87.74
2023-04-16T12:05:39.215Z,88.02
2023-04-16T12:08:08.277Z,87.75
2023-04-16T12:10:37.747Z,87.68
2023-04-16T12:13:14.588Z,87.70
2023-04-16T12:15:49.790Z,87.65
2023-04-16T12:18:17.872Z,87.86
2023-04-16T12:20:45.614Z,87.82
2023-04-16T12:23:26.420Z,87.78
2023-04-16T12:25:53.432Z,87.86
2023-04-16T12:28:35.067Z,87.98
2023-04-16T12:31:02.709Z,88.08
2023-04-16T12:33:29.859Z,88.22
2023-04-16T12:35:56.942Z,87.96
2023-04-16T12:38:24.648Z,88.20
2023-04-16T12:40:52.126Z,87.95
2023-04-16T12:43:19.967Z,88.08
2023-04-16T12:45:46.875Z,88.16
2023-04-16T12:48:13.673Z,87.73
2023-04-16T12:50:40.674Z,87.68
2023-04-16T12:53:07.503Z,87.30
2023-04-16T12:55:34.370Z,87.52
2023-04-16T12:58:01.208Z,87.26
2023-04-16T13:00:28.088Z,87.03
2023-04-16T13:02:54.954Z,86.80
2023-04-16T13:05:22.080Z,86.72
2023-04-16T13:07:48.854Z,86.57
2023-04-16T13:10:15.643Z,86.66
2023-04-16T13:12:42.422Z,86.18
2023-04-16T13:15:10.052Z,86.08
2023-04-16T13:17:36.907Z,85.96
2023-04-16T13:20:03.941Z,86.03
2023-04-16T13:22:30.809Z,85.52
2023-04-16T13:24:57.665Z,85.54
2023-04-16T13:27:24.557Z,85.67
2023-04-16T13:29:51.332Z,85.64
2023-04-16T13:32:19.109Z,85.48
2023-04-16T13:34:45.977Z,85.08
2023-04-16T13:37:12.979Z,85.26
2023-04-16T13:39:39.867Z,85.26
2023-04-16T13:42:06.714Z,85.08
2023-04-16T13:44:33.553Z,84.75
2023-04-16T13:47:00.609Z,85.15
2023-04-16T13:49:27.516Z,84.72
2023-04-16T13:51:54.303Z,85.07
2023-04-16T13:54:21.067Z,84.94
2023-04-16T13:56:47.884Z,84.80
2023-04-16T13:59:16.767Z,85.11
2023-04-16T14:01:43.546Z,85.40
2023-04-16T14:04:10.593Z,85.47
2023-04-16T14:06:37.470Z,85.54
2023-04-16T14:09:04.654Z,85.47
2023-04-16T14:11:31.861Z,85.70
2023-04-16T14:13:58.820Z,85.66
2023-04-16T14:16:26.272Z,85.75
2023-04-16T14:18:53.205Z,85.99
2023-04-16T14:21:20.083Z,85.85
2023-04-16T14:23:47.016Z,86.47
2023-04-16T14:26:14.483Z,86.56
2023-04-16T14:28:41.654Z,86.35
2023-04-16T14:31:08.655Z,86.73
2023-04-16T14:33:35.529Z,86.84
2023-04-16T14:36:03.582Z,86.89
2023-04-16T14:38:31.426Z,87.42
2023-04-16T14:41:00.571Z,87.44
2023-04-16T14:43:27.503Z,87.58
2023-04-16T14:45:54.310Z,87.44
2023-04-16T14:48:22.233Z,87.45
2023-04-16T14:50:49.159Z,87.56
2023-04-16T14:53:16.130Z,87.27
2023-04-16T14:55:42.921Z,87.66
2023-04-16T14:58:10.903Z,87.72
2023-04-16T15:00:37.824Z,87.46
2023-04-16T15:03:05.081Z,87.61
2023-04-16T15:05:32.226Z,87.59
2023-04-16T15:07:59.404Z,87.50
2023-04-16T15:10:26.347Z,87.37
2023-04-16T15:12:53.559Z,87.44
2023-04-16T15:15:24.058Z,87.48
2023-04-16T15:17:52.089Z,87.43
2023-04-16T15:20:18.957Z,87.46
2023-04-16T15:22:46.078Z,87.36
2023-04-16T15:25:13.009Z,87.17
2023-04-16T15:27:39.839Z,87.30
2023-04-16T15:30:07.494Z,87.49
2023-04-16T15:32:34.271Z,87.04
2023-04-16T15:35:03.134Z,87.27
2023-04-16T15:37:30.021Z,87.33
2023-04-16T15:39:57.081Z,87.10
2023-04-16T15:42:24.087Z,87.43
2023-04-16T15:44:50.874Z,87.28
2023-04-16T15:47:17.636Z,87.49
2023-04-16T15:49:44.472Z,87.49
2023-04-16T15:52:12.156Z,87.29
2023-04-16T15:54:38.999Z,87.53
2023-04-16T15:57:05.810Z,87.56
2023-04-16T15:59:33.086Z,87.54
2023-04-16T16:02:00.209Z,87.27
2023-04-16T16:04:28.451Z,87.33
2023-04-16T16:06:55.858Z,87.58
2023-04-16T16:09:26.751Z,87.30
2023-04-16T16:11:59.034Z,87.30
2023-04-16T16:14:27.032Z,87.30
2023-04-16T16:16:56.641Z,87.55
2023-04-16T16:19:23.430Z,87.67
2023-04-16T16:21:50.211Z,87.31
2023-04-16T16:24:17.000Z,87.49
2023-04-16T16:26:44.211Z,87.60
2023-04-16T16:29:11.332Z,87.87
2023-04-16T16:31:38.883Z,87.84
2023-04-16T16:34:05.868Z,87.83
2023-04-16T16:36:36.810Z,87.78
2023-04-16T16:39:04.477Z,87.74
2023-04-16T16:41:31.381Z,87.84
2023-04-16T16:43:59.254Z,88.25
2023-04-16T16:46:26.127Z,88.06
2023-04-16T16:48:52.956Z,88.06
2023-04-16T16:51:19.773Z,88.36
2023-04-16T16:53:46.777Z,88.40
2023-04-16T16:56:13.570Z,88.36
2023-04-16T16:58:40.511Z,88.46
2023-04-16T17:01:07.460Z,88.68
2023-04-16T17:03:34.799Z,88.85
2023-04-16T17:06:02.195Z,88.70
2023-04-16T17:08:29.277Z,88.82
2023-04-16T17:10:56.154Z,88.74
2023-04-16T17:13:26.176Z,89.19
2023-04-16T17:15:55.545Z,88.88
2023-04-16T17:18:22.354Z,89.03
2023-04-16T17:20:49.280Z,89.12
2023-04-16T17:23:16.537Z,89.45
2023-04-16T17:25:43.467Z,89.24
2023-04-16T17:28:10.416Z,89.13
2023-04-16T17:30:37.774Z,89.41
2023-04-16T17:33:04.860Z,89.33
2023-04-16T17:35:31.845Z,89.48
2023-04-16T17:37:58.644Z,89.57
2023-04-16T17:40:25.911Z,89.24
2023-04-16T17:42:52.671Z,89.05
2023-04-16T17:45:19.981Z,88.81
2023-04-16T17:47:49.231Z,89.25
2023-04-16T17:50:16.139Z,88.89
2023-04-16T17:52:43.542Z,89.25
2023-04-16T17:55:11.666Z,88.72
2023-04-16T17:57:46.483Z,89.14
2023-04-16T18:00:43.984Z,88.76
2023-04-16T18:03:28.199Z,88.46
2023-04-16T18:05:55.147Z,88.67
2023-04-16T18:08:23.320Z,88.52
2023-04-16T18:10:50.887Z,88.34
2023-04-16T18:13:18.697Z,88.27
2023-04-16T18:15:45.549Z,88.45
2023-04-16T18:18:12.400Z,88.32
2023-04-16T18:20:39.181Z,88.65
2023-04-16T18:23:06.114Z,88.38
2023-04-16T18:25:35.245Z,88.49
2023-04-16T18:28:04.055Z,88.31
2023-04-16T18:30:30.896Z,88.52
2023-04-16T18:35:27.447Z,88.64
2023-04-16T18:37:54.216Z,88.45
2023-04-16T18:40:21.088Z,88.17
2023-04-16T18:42:47.949Z,88.52
2023-04-16T18:45:20.976Z,88.75
2023-04-16T18:47:48.578Z,88.75
2023-04-16T18:50:15.714Z,88.44
2023-04-16T18:52:43.587Z,88.60
2023-04-16T18:55:10.474Z,88.24
2023-04-16T18:57:37.335Z,88.36
2023-04-16T19:00:09.599Z,88.38
2023-04-16T19:02:36.565Z,88.11
2023-04-16T19:05:04.918Z,88.16
2023-04-16T19:07:31.863Z,88.39
2023-04-16T19:09:58.980Z,88.16
2023-04-16T19:12:38.664Z,88.38
2023-04-16T19:15:09.034Z,88.37
2023-04-16T19:17:36.434Z,88.35
2023-04-16T19:20:08.113Z,88.15
2023-04-16T19:22:39.202Z,88.00
2023-04-16T19:25:06.587Z,88.06
2023-04-16T19:27:33.698Z,87.88
2023-04-16T19:30:00.560Z,87.89
2023-04-16T19:32:27.404Z,87.89
2023-04-16T19:34:54.161Z,87.68
2023-04-16T19:37:20.911Z,87.57
2023-04-16T19:39:47.908Z,87.54
2023-04-16T19:42:14.833Z,87.62
2023-04-16T19:44:41.641Z,87.69
2023-04-16T19:47:08.528Z,87.61
2023-04-16T19:49:35.551Z,87.77
2023-04-16T19:52:02.379Z,87.46
2023-04-16T19:54:29.425Z,87.29
2023-04-16T19:56:57.241Z,87.49
2023-04-16T19:59:28.313Z,87.41
2023-04-16T20:01:55.138Z,87.64
2023-04-16T20:04:22.024Z,87.62
2023-04-16T20:06:49.429Z,87.62
2023-04-16T20:09:18.726Z,87.47
2023-04-16T20:11:46.528Z,87.67
2023-04-16T20:14:13.547Z,87.42
2023-04-16T20:16:41.044Z,87.50
2023-04-16T20:19:09.127Z,87.64
2023-04-16T20:21:36.505Z,87.46
2023-04-16T20:24:03.616Z,87.84
2023-04-16T20:26:33.885Z,87.69
2023-04-16T20:29:01.090Z,87.65
2023-04-16T20:31:28.523Z,87.54
2023-04-16T20:33:55.495Z,87.61
2023-04-16T20:36:22.303Z,87.72
2023-04-16T20:38:51.459Z,87.66
2023-04-16T20:41:22.758Z,87.85
2023-04-16T20:43:50.445Z,87.78
2023-04-16T20:46:17.960Z,87.98
2023-04-16T20:48:44.857Z,88.04
2023-04-16T20:51:11.903Z,87.83
2023-04-16T20:53:38.809Z,87.98
2023-04-16T20:56:07.043Z,88.02
2023-04-16T20:58:33.925Z,88.12
2023-04-16T21:01:01.002Z,88.12
2023-04-16T21:03:28.025Z,88.14
2023-04-16T21:05:55.772Z,88.05
2023-04-16T21:08:23.642Z,88.06
2023-04-16T21:10:50.776Z,88.03
2023-04-16T21:13:17.607Z,88.00
2023-04-16T21:15:45.260Z,88.07
2023-04-16T21:18:12.396Z,88.23
2023-04-16T21:20:39.447Z,88.32
2023-04-16T21:23:07.079Z,88.51
2023-04-16T21:25:33.877Z,87.99
2023-04-16T21:28:00.766Z,88.29
2023-04-16T21:30:27.616Z,88.33
2023-04-16T21:32:55.051Z,88.12
2023-04-16T21:35:21.937Z,88.14
2023-04-16T21:37:48.758Z,88.09
2023-04-16T21:40:15.774Z,88.15
2023-04-16T21:42:42.676Z,88.16
2023-04-16T21:45:10.575Z,88.05
2023-04-16T21:47:38.124Z,88.16
2023-04-16T21:50:05.941Z,88.22
2023-04-16T21:52:33.151Z,88.19
2023-04-16T21:55:00.796Z,88.21
2023-04-16T21:57:27.576Z,88.00
2023-04-16T21:59:54.360Z,87.96
2023-04-16T22:02:21.323Z,88.14
2023-04-16T22:04:48.880Z,87.76
2023-04-16T22:07:16.991Z,88.07
2023-04-16T22:09:44.130Z,87.91
2023-04-16T22:12:10.988Z,87.91
2023-04-16T22:14:44.009Z,87.85
2023-04-16T22:17:13.246Z,87.82
2023-04-16T22:19:40.065Z,87.88
2023-04-16T22:22:06.834Z,87.99
2023-04-16T22:24:33.761Z,88.02
2023-04-16T22:27:01.470Z,87.76
2023-04-16T22:29:28.309Z,87.89
2023-04-16T22:31:55.415Z,87.80
2023-04-16T22:34:22.342Z,87.74
2023-04-16T22:36:49.114Z,87.92
2023-04-16T22:39:16.139Z,87.72
2023-04-16T22:41:42.916Z,88.00
2023-04-16T22:44:10.132Z,87.85
2023-04-16T22:46:37.127Z,87.90
2023-04-16T22:49:03.950Z,87.77
2023-04-16T22:51:30.829Z,87.87
2023-04-16T22:53:57.587Z,87.64
2023-04-16T22:56:28.960Z,87.90
2023-04-16T22:58:55.983Z,87.58
2023-04-16T23:01:23.790Z,87.70
2023-04-16T23:03:50.653Z,87.52
2023-04-16T23:06:17.466Z,87.65
2023-04-16T23:08:44.681Z,87.29
2023-04-16T23:11:11.878Z,87.58
2023-04-16T23:13:38.725Z,87.58
2023-04-16T23:16:05.971Z,87.25
2023-04-16T23:18:32.865Z,87.20
2023-04-16T23:20:59.692Z,87.50
2023-04-16T23:23:26.557Z,87.17
2023-04-16T23:25:53.941Z,87.54
2023-04-16T23:28:21.745Z,87.17
2023-04-16T23:30:52.644Z,87.20
2023-04-16T23:33:19.660Z,87.19
2023-04-16T23:35:47.486Z,87.03
2023-04-16T23:38:14.306Z,86.85
2023-04-16T23:40:41.413Z,87.02
2023-04-16T23:43:08.299Z,86.73
2023-04-16T23:45:35.205Z,86.94
2023-04-16T23:48:02.167Z,87.02
2023-04-16T23:50:28.997Z,86.84
2023-04-16T23:52:55.862Z,86.60
2023-04-16T23:55:22.767Z,86.74
2023-04-16T23:57:49.644Z,86.50
